sensor_id;sensor_type;location;lat;lon;timestamp;P1;durP1;ratioP1;P2;durP2;ratioP2
10511;SDS011;5304;48.604;2.096;2023-10-19T03:27:28;11.63;;;2.93;;
10511;SDS011;5304;48.604;2.096;2023-10-19T03:30:13;10.57;;;2.70;;
10511;SDS011;5304;48.604;2.096;2023-10-19T03:32:59;12.80;;;2.43;;
10511;SDS011;5304;48.604;2.096;2023-10-19T03:35:44;10.27;;;2.93;;
10511;SDS011;5304;48.604;2.096;2023-10-19T03:38:28;12.43;;;2.60;;
10511;SDS011;5304;48.604;2.096;2023-10-19T03:41:18;10.23;;;3.10;;
10511;SDS011;5304;48.604;2.096;2023-10-19T03:44:05;15.07;;;2.93;;
10511;SDS011;5304;48.604;2.096;2023-10-19T03:46:56;10.60;;;2.43;;
10511;SDS011;5304;48.604;2.096;2023-10-19T03:49:41;11.83;;;2.77;;
10511;SDS011;5304;48.604;2.096;2023-10-19T03:52:26;12.03;;;2.77;;
10511;SDS011;5304;48.604;2.096;2023-10-19T03:55:14;14.40;;;2.70;;
10511;SDS011;5304;48.604;2.096;2023-10-19T03:58:07;9.00;;;2.50;;
10511;SDS011;5304;48.604;2.096;2023-10-19T04:00:51;10.83;;;2.70;;
10511;SDS011;5304;48.604;2.096;2023-10-19T04:03:36;9.23;;;2.40;;
10511;SDS011;5304;48.604;2.096;2023-10-19T04:06:20;15.50;;;2.63;;
10511;SDS011;5304;48.604;2.096;2023-10-19T04:09:04;9.07;;;2.73;;
10511;SDS011;5304;48.604;2.096;2023-10-19T04:11:49;9.27;;;2.37;;
10511;SDS011;5304;48.604;2.096;2023-10-19T04:14:34;9.83;;;2.40;;
10511;SDS011;5304;48.604;2.096;2023-10-19T04:17:22;13.63;;;3.13;;
10511;SDS011;5304;48.604;2.096;2023-10-19T04:20:08;11.17;;;2.53;;
10511;SDS011;5304;48.604;2.096;2023-10-19T04:23:00;15.17;;;3.00;;
10511;SDS011;5304;48.604;2.096;2023-10-19T04:25:56;7.30;;;2.27;;
10511;SDS011;5304;48.604;2.096;2023-10-19T04:28:41;5.40;;;2.70;;
10511;SDS011;5304;48.604;2.096;2023-10-19T04:31:28;10.93;;;2.57;;
10511;SDS011;5304;48.604;2.096;2023-10-19T04:34:14;10.47;;;2.20;;
10511;SDS011;5304;48.604;2.096;2023-10-19T04:37:01;7.70;;;2.80;;
10511;SDS011;5304;48.604;2.096;2023-10-19T04:39:50;10.77;;;2.70;;
10511;SDS011;5304;48.604;2.096;2023-10-19T04:42:35;12.67;;;2.93;;
10511;SDS011;5304;48.604;2.096;2023-10-19T04:45:21;10.13;;;2.63;;
10511;SDS011;5304;48.604;2.096;2023-10-19T04:48:05;13.33;;;2.87;;
10511;SDS011;5304;48.604;2.096;2023-10-19T04:50:50;11.43;;;2.40;;
10511;SDS011;5304;48.604;2.096;2023-10-19T04:53:34;5.60;;;2.00;;
10511;SDS011;5304;48.604;2.096;2023-10-19T04:56:21;9.07;;;2.63;;
10511;SDS011;5304;48.604;2.096;2023-10-19T04:59:06;9.53;;;2.17;;
10511;SDS011;5304;48.604;2.096;2023-10-19T05:01:50;12.70;;;2.27;;
10511;SDS011;5304;48.604;2.096;2023-10-19T05:04:34;10.50;;;2.43;;
10511;SDS011;5304;48.604;2.096;2023-10-19T05:07:19;11.20;;;2.60;;
10511;SDS011;5304;48.604;2.096;2023-10-19T05:10:04;7.47;;;2.30;;
10511;SDS011;5304;48.604;2.096;2023-10-19T05:12:49;9.67;;;2.20;;
10511;SDS011;5304;48.604;2.096;2023-10-19T05:15:33;9.43;;;2.17;;
10511;SDS011;5304;48.604;2.096;2023-10-19T05:18:18;14.50;;;2.53;;
10511;SDS011;5304;48.604;2.096;2023-10-19T05:21:03;6.93;;;2.17;;
10511;SDS011;5304;48.604;2.096;2023-10-19T05:23:49;8.23;;;2.27;;
10511;SDS011;5304;48.604;2.096;2023-10-19T05:26:33;9.93;;;2.47;;
10511;SDS011;5304;48.604;2.096;2023-10-19T05:29:17;8.40;;;2.17;;
10511;SDS011;5304;48.604;2.096;2023-10-19T05:32:03;8.00;;;2.03;;
10511;SDS011;5304;48.604;2.096;2023-10-19T05:34:49;5.30;;;2.10;;
10511;SDS011;5304;48.604;2.096;2023-10-19T05:37:33;8.23;;;2.17;;
10511;SDS011;5304;48.604;2.096;2023-10-19T05:40:19;10.00;;;2.23;;
10511;SDS011;5304;48.604;2.096;2023-10-19T05:43:07;7.00;;;1.77;;
10511;SDS011;5304;48.604;2.096;2023-10-19T05:45:51;7.10;;;1.87;;
10511;SDS011;5304;48.604;2.096;2023-10-19T05:48:35;10.77;;;2.13;;
10511;SDS011;5304;48.604;2.096;2023-10-19T05:51:21;8.13;;;2.03;;
10511;SDS011;5304;48.604;2.096;2023-10-19T05:54:06;5.93;;;1.83;;
10511;SDS011;5304;48.604;2.096;2023-10-19T05:56:52;9.67;;;2.10;;
10511;SDS011;5304;48.604;2.096;2023-10-19T05:59:37;8.00;;;2.00;;
10511;SDS011;5304;48.604;2.096;2023-10-19T06:02:21;7.30;;;2.20;;
10511;SDS011;5304;48.604;2.096;2023-10-19T06:05:06;4.33;;;1.73;;
10511;SDS011;5304;48.604;2.096;2023-10-19T06:07:52;7.03;;;1.80;;
10511;SDS011;5304;48.604;2.096;2023-10-19T06:10:36;6.13;;;1.87;;
10511;SDS011;5304;48.604;2.096;2023-10-19T06:13:23;6.40;;;2.13;;
10511;SDS011;5304;48.604;2.096;2023-10-19T06:16:07;7.10;;;2.10;;
10511;SDS011;5304;48.604;2.096;2023-10-19T06:18:51;4.73;;;1.80;;
10511;SDS011;5304;48.604;2.096;2023-10-19T06:21:35;6.20;;;2.13;;
10511;SDS011;5304;48.604;2.096;2023-10-19T06:24:20;5.27;;;1.70;;
10511;SDS011;5304;48.604;2.096;2023-10-19T06:27:04;5.70;;;2.30;;
10511;SDS011;5304;48.604;2.096;2023-10-19T06:29:49;5.10;;;1.93;;
10511;SDS011;5304;48.604;2.096;2023-10-19T06:32:33;6.67;;;2.00;;
10511;SDS011;5304;48.604;2.096;2023-10-19T06:35:18;6.00;;;1.60;;
10511;SDS011;5304;48.604;2.096;2023-10-19T06:38:03;5.37;;;2.07;;
10511;SDS011;5304;48.604;2.096;2023-10-19T06:40:47;8.30;;;2.40;;
10511;SDS011;5304;48.604;2.096;2023-10-19T06:43:31;11.33;;;2.23;;
10511;SDS011;5304;48.604;2.096;2023-10-19T06:46:16;6.13;;;2.40;;
10511;SDS011;5304;48.604;2.096;2023-10-19T06:49:00;9.00;;;2.40;;
10511;SDS011;5304;48.604;2.096;2023-10-19T06:51:44;4.23;;;2.20;;
10511;SDS011;5304;48.604;2.096;2023-10-19T06:54:28;4.87;;;1.80;;
10511;SDS011;5304;48.604;2.096;2023-10-19T06:57:12;5.33;;;2.13;;
10511;SDS011;5304;48.604;2.096;2023-10-19T06:59:57;9.60;;;2.60;;
10511;SDS011;5304;48.604;2.096;2023-10-19T07:02:42;9.87;;;1.90;;
10511;SDS011;5304;48.604;2.096;2023-10-19T07:05:27;5.33;;;1.80;;
10511;SDS011;5304;48.604;2.096;2023-10-19T07:08:13;5.20;;;1.90;;
10511;SDS011;5304;48.604;2.096;2023-10-19T07:10:57;5.67;;;1.80;;
10511;SDS011;5304;48.604;2.096;2023-10-19T07:13:41;6.40;;;1.73;;
10511;SDS011;5304;48.604;2.096;2023-10-19T07:16:26;4.97;;;2.00;;
10511;SDS011;5304;48.604;2.096;2023-10-19T07:19:10;4.80;;;1.97;;
10511;SDS011;5304;48.604;2.096;2023-10-19T07:21:54;6.73;;;1.77;;
10511;SDS011;5304;48.604;2.096;2023-10-19T07:24:41;5.03;;;2.37;;
10511;SDS011;5304;48.604;2.096;2023-10-19T07:27:25;3.83;;;1.83;;
10511;SDS011;5304;48.604;2.096;2023-10-19T07:30:12;7.13;;;1.83;;
10511;SDS011;5304;48.604;2.096;2023-10-19T07:32:58;6.10;;;2.20;;
10511;SDS011;5304;48.604;2.096;2023-10-19T07:35:43;4.20;;;1.57;;
10511;SDS011;5304;48.604;2.096;2023-10-19T07:38:30;5.77;;;2.10;;
10511;SDS011;5304;48.604;2.096;2023-10-19T07:41:17;4.27;;;1.50;;
10511;SDS011;5304;48.604;2.096;2023-10-19T07:44:01;5.37;;;2.20;;
10511;SDS011;5304;48.604;2.096;2023-10-19T07:46:45;5.77;;;1.60;;
10511;SDS011;5304;48.604;2.096;2023-10-19T07:49:30;4.83;;;1.90;;
10511;SDS011;5304;48.604;2.096;2023-10-19T07:52:14;2.70;;;1.40;;
10511;SDS011;5304;48.604;2.096;2023-10-19T07:54:58;4.10;;;1.67;;
10511;SDS011;5304;48.604;2.096;2023-10-19T07:57:42;6.20;;;1.83;;
10511;SDS011;5304;48.604;2.096;2023-10-19T08:00:27;5.50;;;1.40;;
10511;SDS011;5304;48.604;2.096;2023-10-19T08:03:15;2.87;;;1.87;;
10511;SDS011;5304;48.604;2.096;2023-10-19T08:06:00;3.43;;;1.73;;
10511;SDS011;5304;48.604;2.096;2023-10-19T08:08:44;3.97;;;1.50;;
10511;SDS011;5304;48.604;2.096;2023-10-19T08:11:30;6.57;;;1.80;;
10511;SDS011;5304;48.604;2.096;2023-10-19T08:14:15;3.70;;;1.37;;
10511;SDS011;5304;48.604;2.096;2023-10-19T08:16:59;2.87;;;1.40;;
10511;SDS011;5304;48.604;2.096;2023-10-19T08:19:43;3.93;;;1.37;;
10511;SDS011;5304;48.604;2.096;2023-10-19T08:22:27;4.70;;;1.23;;
10511;SDS011;5304;48.604;2.096;2023-10-19T08:25:12;1.53;;;1.10;;
10511;SDS011;5304;48.604;2.096;2023-10-19T08:27:58;3.03;;;1.20;;
10511;SDS011;5304;48.604;2.096;2023-10-19T08:30:43;3.07;;;1.47;;
10511;SDS011;5304;48.604;2.096;2023-10-19T08:33:40;3.27;;;1.53;;
10511;SDS011;5304;48.604;2.096;2023-10-19T08:36:24;4.07;;;1.37;;
10511;SDS011;5304;48.604;2.096;2023-10-19T08:39:10;3.97;;;1.60;;
10511;SDS011;5304;48.604;2.096;2023-10-19T08:41:57;3.10;;;1.17;;
10511;SDS011;5304;48.604;2.096;2023-10-19T08:44:42;4.53;;;1.30;;
10511;SDS011;5304;48.604;2.096;2023-10-19T08:47:26;3.33;;;1.30;;
10511;SDS011;5304;48.604;2.096;2023-10-19T08:50:11;4.60;;;1.73;;
10511;SDS011;5304;48.604;2.096;2023-10-19T08:53:00;5.23;;;1.33;;
10511;SDS011;5304;48.604;2.096;2023-10-19T08:55:46;3.90;;;1.60;;
10511;SDS011;5304;48.604;2.096;2023-10-19T08:58:34;3.23;;;1.27;;
10511;SDS011;5304;48.604;2.096;2023-10-19T09:01:19;1.43;;;1.30;;
10511;SDS011;5304;48.604;2.096;2023-10-19T09:04:03;2.93;;;1.40;;
10511;SDS011;5304;48.604;2.096;2023-10-19T09:06:49;2.87;;;1.30;;
10511;SDS011;5304;48.604;2.096;2023-10-19T09:09:38;3.95;;;1.33;;
10511;SDS011;5304;48.604;2.096;2023-10-19T09:12:24;3.00;;;1.38;;
10511;SDS011;5304;48.604;2.096;2023-10-19T09:15:29;3.33;;;1.30;;
10511;SDS011;5304;48.604;2.096;2023-10-19T09:18:20;2.03;;;1.08;;
10511;SDS011;5304;48.604;2.096;2023-10-19T09:21:11;3.10;;;1.25;;
10511;SDS011;5304;48.604;2.096;2023-10-19T09:24:07;1.95;;;1.30;;
10511;SDS011;5304;48.604;2.096;2023-10-19T09:26:53;2.88;;;1.30;;
10511;SDS011;5304;48.604;2.096;2023-10-19T09:29:37;5.85;;;1.38;;
10511;SDS011;5304;48.604;2.096;2023-10-19T09:32:22;3.25;;;1.05;;
10511;SDS011;5304;48.604;2.096;2023-10-19T09:35:06;5.50;;;1.20;;
10511;SDS011;5304;48.604;2.096;2023-10-19T09:37:52;3.85;;;1.50;;
10511;SDS011;5304;48.604;2.096;2023-10-19T09:40:37;6.47;;;1.45;;
10511;SDS011;5304;48.604;2.096;2023-10-19T09:43:44;3.90;;;1.38;;
10511;SDS011;5304;48.604;2.096;2023-10-19T09:46:31;2.88;;;1.30;;
10511;SDS011;5304;48.604;2.096;2023-10-19T09:49:16;4.80;;;1.40;;
10511;SDS011;5304;48.604;2.096;2023-10-19T09:52:02;3.55;;;1.00;;
10511;SDS011;5304;48.604;2.096;2023-10-19T10:00:37;3.53;;;1.90;;
10511;SDS011;5304;48.604;2.096;2023-10-19T10:09:43;2.97;;;1.20;;
10511;SDS011;5304;48.604;2.096;2023-10-19T10:12:28;2.85;;;1.20;;
10511;SDS011;5304;48.604;2.096;2023-10-19T10:15:12;3.55;;;1.50;;
10511;SDS011;5304;48.604;2.096;2023-10-19T10:17:59;3.72;;;1.40;;
10511;SDS011;5304;48.604;2.096;2023-10-19T10:21:05;3.40;;;1.58;;
10511;SDS011;5304;48.604;2.096;2023-10-19T10:29:56;3.97;;;1.33;;
10511;SDS011;5304;48.604;2.096;2023-10-19T10:32:50;4.18;;;1.52;;
10511;SDS011;5304;48.604;2.096;2023-10-19T10:38:25;3.53;;;1.40;;
10511;SDS011;5304;48.604;2.096;2023-10-19T10:41:20;4.15;;;1.33;;
10511;SDS011;5304;48.604;2.096;2023-10-19T10:44:05;5.82;;;1.42;;
10511;SDS011;5304;48.604;2.096;2023-10-19T10:46:49;4.25;;;1.75;;
10511;SDS011;5304;48.604;2.096;2023-10-19T10:49:35;2.35;;;1.48;;
10511;SDS011;5304;48.604;2.096;2023-10-19T10:52:37;6.22;;;1.40;;
10511;SDS011;5304;48.604;2.096;2023-10-19T10:55:21;4.10;;;1.60;;
10511;SDS011;5304;48.604;2.096;2023-10-19T10:58:07;3.70;;;1.52;;
10511;SDS011;5304;48.604;2.096;2023-10-19T11:00:52;3.72;;;1.30;;
10511;SDS011;5304;48.604;2.096;2023-10-19T11:03:38;5.72;;;1.33;;
10511;SDS011;5304;48.604;2.096;2023-10-19T11:06:23;3.47;;;1.35;;
10511;SDS011;5304;48.604;2.096;2023-10-19T11:09:10;3.35;;;1.40;;
10511;SDS011;5304;48.604;2.096;2023-10-19T11:11:55;5.82;;;1.50;;
10511;SDS011;5304;48.604;2.096;2023-10-19T11:15:00;5.05;;;1.58;;
10511;SDS011;5304;48.604;2.096;2023-10-19T11:17:44;4.68;;;1.45;;
10511;SDS011;5304;48.604;2.096;2023-10-19T11:20:29;3.22;;;1.25;;
10511;SDS011;5304;48.604;2.096;2023-10-19T11:23:13;4.20;;;1.30;;
10511;SDS011;5304;48.604;2.096;2023-10-19T11:25:57;3.58;;;1.50;;
10511;SDS011;5304;48.604;2.096;2023-10-19T11:28:42;3.33;;;1.25;;
10511;SDS011;5304;48.604;2.096;2023-10-19T11:31:27;2.92;;;1.20;;
10511;SDS011;5304;48.604;2.096;2023-10-19T11:34:11;4.95;;;1.38;;
10511;SDS011;5304;48.604;2.096;2023-10-19T11:37:02;3.55;;;1.20;;
10511;SDS011;5304;48.604;2.096;2023-10-19T11:39:48;4.65;;;1.35;;
10511;SDS011;5304;48.604;2.096;2023-10-19T11:42:36;4.55;;;1.40;;
10511;SDS011;5304;48.604;2.096;2023-10-19T11:45:21;5.65;;;1.25;;
10511;SDS011;5304;48.604;2.096;2023-10-19T11:48:05;1.75;;;1.10;;
10511;SDS011;5304;48.604;2.096;2023-10-19T11:50:51;1.23;;;1.08;;
10511;SDS011;5304;48.604;2.096;2023-10-19T11:53:35;4.78;;;1.40;;
10511;SDS011;5304;48.604;2.096;2023-10-19T11:56:20;3.20;;;1.05;;
10511;SDS011;5304;48.604;2.096;2023-10-19T11:59:04;4.15;;;1.52;;
10511;SDS011;5304;48.604;2.096;2023-10-19T12:01:51;2.40;;;1.52;;
10511;SDS011;5304;48.604;2.096;2023-10-19T12:04:35;1.98;;;1.10;;
10511;SDS011;5304;48.604;2.096;2023-10-19T12:07:19;7.85;;;1.60;;
10511;SDS011;5304;48.604;2.096;2023-10-19T12:10:07;2.38;;;1.05;;
10511;SDS011;5304;48.604;2.096;2023-10-19T12:12:53;3.97;;;1.30;;
10511;SDS011;5304;48.604;2.096;2023-10-19T12:15:37;4.82;;;1.30;;
10511;SDS011;5304;48.604;2.096;2023-10-19T12:18:21;3.70;;;1.20;;
10511;SDS011;5304;48.604;2.096;2023-10-19T12:21:06;1.63;;;1.10;;
10511;SDS011;5304;48.604;2.096;2023-10-19T12:23:55;3.03;;;1.20;;
10511;SDS011;5304;48.604;2.096;2023-10-19T12:26:39;2.42;;;1.23;;
10511;SDS011;5304;48.604;2.096;2023-10-19T12:29:26;5.45;;;1.38;;
10511;SDS011;5304;48.604;2.096;2023-10-19T12:32:10;4.32;;;1.35;;
10511;SDS011;5304;48.604;2.096;2023-10-19T12:34:56;4.80;;;1.27;;
10511;SDS011;5304;48.604;2.096;2023-10-19T12:37:41;4.40;;;1.40;;
10511;SDS011;5304;48.604;2.096;2023-10-19T12:40:35;3.78;;;1.10;;
10511;SDS011;5304;48.604;2.096;2023-10-19T12:43:19;2.92;;;1.40;;
10511;SDS011;5304;48.604;2.096;2023-10-19T12:46:07;2.63;;;1.30;;
10511;SDS011;5304;48.604;2.096;2023-10-19T12:48:52;3.50;;;1.38;;
10511;SDS011;5304;48.604;2.096;2023-10-19T12:51:39;2.65;;;1.38;;
10511;SDS011;5304;48.604;2.096;2023-10-19T12:54:25;2.38;;;1.35;;
10511;SDS011;5304;48.604;2.096;2023-10-19T12:57:11;4.65;;;1.50;;
10511;SDS011;5304;48.604;2.096;2023-10-19T12:59:56;4.93;;;1.33;;
10511;SDS011;5304;48.604;2.096;2023-10-19T13:02:40;5.57;;;1.90;;
10511;SDS011;5304;48.604;2.096;2023-10-19T13:05:25;3.75;;;1.45;;
10511;SDS011;5304;48.604;2.096;2023-10-19T13:08:11;4.22;;;1.30;;
10511;SDS011;5304;48.604;2.096;2023-10-19T13:10:59;5.57;;;1.67;;
10511;SDS011;5304;48.604;2.096;2023-10-19T13:13:43;4.30;;;1.50;;
10511;SDS011;5304;48.604;2.096;2023-10-19T13:16:27;3.03;;;1.27;;
10511;SDS011;5304;48.604;2.096;2023-10-19T13:19:12;7.18;;;1.50;;
10511;SDS011;5304;48.604;2.096;2023-10-19T13:21:56;3.35;;;1.23;;
10511;SDS011;5304;48.604;2.096;2023-10-19T13:24:46;3.92;;;1.33;;
10511;SDS011;5304;48.604;2.096;2023-10-19T13:27:31;4.80;;;1.42;;
10511;SDS011;5304;48.604;2.096;2023-10-19T13:30:15;3.45;;;1.17;;
10511;SDS011;5304;48.604;2.096;2023-10-19T13:32:59;3.85;;;1.42;;
10511;SDS011;5304;48.604;2.096;2023-10-19T13:35:44;3.22;;;1.40;;
10511;SDS011;5304;48.604;2.096;2023-10-19T13:38:29;4.10;;;1.30;;
10511;SDS011;5304;48.604;2.096;2023-10-19T13:41:13;2.13;;;1.20;;
10511;SDS011;5304;48.604;2.096;2023-10-19T13:44:00;2.88;;;1.33;;
10511;SDS011;5304;48.604;2.096;2023-10-19T13:46:45;3.17;;;1.58;;
10511;SDS011;5304;48.604;2.096;2023-10-19T13:49:29;5.07;;;1.13;;
10511;SDS011;5304;48.604;2.096;2023-10-19T13:52:13;5.32;;;1.55;;
10511;SDS011;5304;48.604;2.096;2023-10-19T13:54:58;4.00;;;1.45;;
10511;SDS011;5304;48.604;2.096;2023-10-19T13:57:43;2.13;;;1.02;;
10511;SDS011;5304;48.604;2.096;2023-10-19T14:00:27;6.47;;;1.50;;
10511;SDS011;5304;48.604;2.096;2023-10-19T14:03:14;3.63;;;1.40;;
10511;SDS011;5304;48.604;2.096;2023-10-19T14:05:59;2.63;;;1.30;;
10511;SDS011;5304;48.604;2.096;2023-10-19T14:08:44;3.53;;;1.35;;
10511;SDS011;5304;48.604;2.096;2023-10-19T14:11:29;2.97;;;1.25;;
10511;SDS011;5304;48.604;2.096;2023-10-19T14:14:13;5.32;;;1.60;;
10511;SDS011;5304;48.604;2.096;2023-10-19T14:16:57;2.65;;;1.20;;
10511;SDS011;5304;48.604;2.096;2023-10-19T14:19:42;3.35;;;1.08;;
10511;SDS011;5304;48.604;2.096;2023-10-19T14:22:28;2.03;;;1.15;;
10511;SDS011;5304;48.604;2.096;2023-10-19T14:25:13;2.78;;;1.40;;
10511;SDS011;5304;48.604;2.096;2023-10-19T14:27:57;2.55;;;1.58;;
10511;SDS011;5304;48.604;2.096;2023-10-19T14:30:45;4.80;;;1.30;;
10511;SDS011;5304;48.604;2.096;2023-10-19T14:33:30;4.43;;;1.33;;
10511;SDS011;5304;48.604;2.096;2023-10-19T14:36:14;4.28;;;1.38;;
10511;SDS011;5304;48.604;2.096;2023-10-19T14:38:58;4.60;;;1.25;;
10511;SDS011;5304;48.604;2.096;2023-10-19T14:41:42;3.15;;;1.38;;
10511;SDS011;5304;48.604;2.096;2023-10-19T14:44:27;5.70;;;1.23;;
10511;SDS011;5304;48.604;2.096;2023-10-19T14:47:11;3.70;;;1.20;;
10511;SDS011;5304;48.604;2.096;2023-10-19T14:49:56;5.90;;;1.63;;
10511;SDS011;5304;48.604;2.096;2023-10-19T14:52:41;2.03;;;1.30;;
10511;SDS011;5304;48.604;2.096;2023-10-19T14:55:27;2.58;;;1.13;;
10511;SDS011;5304;48.604;2.096;2023-10-19T14:58:13;3.13;;;1.17;;
10511;SDS011;5304;48.604;2.096;2023-10-19T15:00:57;2.45;;;1.40;;
10511;SDS011;5304;48.604;2.096;2023-10-19T15:03:41;3.85;;;1.40;;
10511;SDS011;5304;48.604;2.096;2023-10-19T15:06:26;4.82;;;1.25;;
10511;SDS011;5304;48.604;2.096;2023-10-19T15:09:12;4.60;;;2.00;;
10511;SDS011;5304;48.604;2.096;2023-10-19T15:11:59;4.30;;;1.70;;
10511;SDS011;5304;48.604;2.096;2023-10-19T15:14:43;3.70;;;1.40;;
10511;SDS011;5304;48.604;2.096;2023-10-19T15:17:28;3.22;;;1.58;;
10511;SDS011;5304;48.604;2.096;2023-10-19T15:20:14;3.55;;;1.67;;
10511;SDS011;5304;48.604;2.096;2023-10-19T15:22:59;3.13;;;1.35;;
10511;SDS011;5304;48.604;2.096;2023-10-19T15:25:43;4.03;;;1.38;;
10511;SDS011;5304;48.604;2.096;2023-10-19T15:28:27;7.32;;;1.67;;
10511;SDS011;5304;48.604;2.096;2023-10-19T15:31:16;4.07;;;1.60;;
10511;SDS011;5304;48.604;2.096;2023-10-19T15:34:01;5.47;;;1.50;;
10511;SDS011;5304;48.604;2.096;2023-10-19T15:36:45;3.28;;;1.30;;
10511;SDS011;5304;48.604;2.096;2023-10-19T15:39:29;4.18;;;1.88;;
10511;SDS011;5304;48.604;2.096;2023-10-19T15:42:13;3.00;;;1.50;;
10511;SDS011;5304;48.604;2.096;2023-10-19T15:44:58;7.05;;;1.60;;
10511;SDS011;5304;48.604;2.096;2023-10-19T15:47:42;1.80;;;1.00;;
10511;SDS011;5304;48.604;2.096;2023-10-19T15:50:27;4.60;;;1.10;;
10511;SDS011;5304;48.604;2.096;2023-10-19T15:53:11;4.20;;;1.38;;
10511;SDS011;5304;48.604;2.096;2023-10-19T15:55:56;3.20;;;1.42;;
10511;SDS011;5304;48.604;2.096;2023-10-19T15:58:40;2.53;;;1.10;;
10511;SDS011;5304;48.604;2.096;2023-10-19T16:01:25;1.60;;;1.20;;
10511;SDS011;5304;48.604;2.096;2023-10-19T16:04:09;1.52;;;1.05;;
10511;SDS011;5304;48.604;2.096;2023-10-19T16:06:53;2.85;;;1.45;;
10511;SDS011;5304;48.604;2.096;2023-10-19T16:09:37;2.05;;;1.20;;
10511;SDS011;5304;48.604;2.096;2023-10-19T16:12:22;2.65;;;1.35;;
10511;SDS011;5304;48.604;2.096;2023-10-19T16:15:06;2.10;;;1.30;;
10511;SDS011;5304;48.604;2.096;2023-10-19T16:17:51;2.20;;;1.30;;
10511;SDS011;5304;48.604;2.096;2023-10-19T16:20:35;4.40;;;1.73;;
10511;SDS011;5304;48.604;2.096;2023-10-19T16:23:22;3.85;;;1.50;;
10511;SDS011;5304;48.604;2.096;2023-10-19T16:26:07;1.98;;;1.20;;
10511;SDS011;5304;48.604;2.096;2023-10-19T16:28:51;2.47;;;1.50;;
10511;SDS011;5304;48.604;2.096;2023-10-19T16:31:35;2.35;;;1.25;;
10511;SDS011;5304;48.604;2.096;2023-10-19T16:34:20;3.05;;;1.25;;
10511;SDS011;5304;48.604;2.096;2023-10-19T16:37:05;4.38;;;1.42;;
10511;SDS011;5304;48.604;2.096;2023-10-19T16:39:49;2.83;;;1.40;;
10511;SDS011;5304;48.604;2.096;2023-10-19T16:42:36;2.70;;;1.13;;
10511;SDS011;5304;48.604;2.096;2023-10-19T16:45:20;2.38;;;1.23;;
10511;SDS011;5304;48.604;2.096;2023-10-19T16:48:05;1.63;;;1.20;;
10511;SDS011;5304;48.604;2.096;2023-10-19T16:50:50;2.47;;;1.20;;
10511;SDS011;5304;48.604;2.096;2023-10-19T16:53:34;3.00;;;1.30;;
10511;SDS011;5304;48.604;2.096;2023-10-19T16:56:18;1.73;;;1.15;;
10511;SDS011;5304;48.604;2.096;2023-10-19T16:59:03;5.97;;;1.40;;
10511;SDS011;5304;48.604;2.096;2023-10-19T17:01:50;1.30;;;1.20;;
10511;SDS011;5304;48.604;2.096;2023-10-19T17:04:35;3.00;;;1.50;;
10511;SDS011;5304;48.604;2.096;2023-10-19T17:07:20;2.15;;;1.25;;
10511;SDS011;5304;48.604;2.096;2023-10-19T17:10:04;1.40;;;1.17;;
10511;SDS011;5304;48.604;2.096;2023-10-19T17:12:49;2.70;;;1.23;;
10511;SDS011;5304;48.604;2.096;2023-10-19T17:15:33;2.75;;;1.30;;
10511;SDS011;5304;48.604;2.096;2023-10-19T17:18:18;2.00;;;1.40;;
10511;SDS011;5304;48.604;2.096;2023-10-19T17:21:02;1.45;;;1.20;;
10511;SDS011;5304;48.604;2.096;2023-10-19T17:23:46;4.50;;;1.20;;
10511;SDS011;5304;48.604;2.096;2023-10-19T17:26:32;1.77;;;1.20;;
10511;SDS011;5304;48.604;2.096;2023-10-19T17:29:17;1.27;;;1.17;;
10511;SDS011;5304;48.604;2.096;2023-10-19T17:32:02;1.27;;;1.17;;
10511;SDS011;5304;48.604;2.096;2023-10-19T17:34:46;1.88;;;1.33;;
10511;SDS011;5304;48.604;2.096;2023-10-19T17:37:33;2.45;;;1.42;;
10511;SDS011;5304;48.604;2.096;2023-10-19T17:40:17;2.00;;;1.10;;
10511;SDS011;5304;48.604;2.096;2023-10-19T17:43:03;1.77;;;1.30;;
10511;SDS011;5304;48.604;2.096;2023-10-19T17:45:47;1.73;;;1.10;;
10511;SDS011;5304;48.604;2.096;2023-10-19T17:48:31;1.30;;;1.10;;
10511;SDS011;5304;48.604;2.096;2023-10-19T17:51:16;1.87;;;1.03;;
10511;SDS011;5304;48.604;2.096;2023-10-19T17:54:00;2.50;;;1.20;;
10511;SDS011;5304;48.604;2.096;2023-10-19T17:56:46;1.67;;;1.00;;
10511;SDS011;5304;48.604;2.096;2023-10-19T17:59:30;1.45;;;1.20;;
10511;SDS011;5304;48.604;2.096;2023-10-19T18:02:15;1.40;;;0.90;;
10511;SDS011;5304;48.604;2.096;2023-10-19T18:05:00;1.10;;;1.00;;
10511;SDS011;5304;48.604;2.096;2023-10-19T18:07:45;1.10;;;0.93;;
10511;SDS011;5304;48.604;2.096;2023-10-19T18:10:32;1.27;;;1.10;;
10511;SDS011;5304;48.604;2.096;2023-10-19T18:13:17;2.40;;;0.90;;
10511;SDS011;5304;48.604;2.096;2023-10-19T18:16:02;1.00;;;1.00;;
10511;SDS011;5304;48.604;2.096;2023-10-19T18:18:48;1.63;;;1.20;;
10511;SDS011;5304;48.604;2.096;2023-10-19T18:21:32;4.20;;;1.00;;
10511;SDS011;5304;48.604;2.096;2023-10-19T18:24:17;1.70;;;1.47;;
10511;SDS011;5304;48.604;2.096;2023-10-19T18:27:01;1.50;;;1.20;;
10511;SDS011;5304;48.604;2.096;2023-10-19T18:29:46;3.20;;;1.17;;
10511;SDS011;5304;48.604;2.096;2023-10-19T18:32:29;2.60;;;1.23;;
10511;SDS011;5304;48.604;2.096;2023-10-19T18:35:14;2.57;;;1.20;;
10511;SDS011;5304;48.604;2.096;2023-10-19T18:37:59;2.13;;;1.23;;
10511;SDS011;5304;48.604;2.096;2023-10-19T18:40:52;1.20;;;1.07;;
10511;SDS011;5304;48.604;2.096;2023-10-19T18:43:41;2.80;;;1.33;;
10511;SDS011;5304;48.604;2.096;2023-10-19T18:46:25;1.17;;;1.00;;
10511;SDS011;5304;48.604;2.096;2023-10-19T18:49:10;1.20;;;1.10;;
10511;SDS011;5304;48.604;2.096;2023-10-19T18:51:55;1.17;;;1.07;;
10511;SDS011;5304;48.604;2.096;2023-10-19T18:54:39;2.80;;;1.70;;
10511;SDS011;5304;48.604;2.096;2023-10-19T18:57:24;1.67;;;1.20;;
10511;SDS011;5304;48.604;2.096;2023-10-19T19:00:08;2.67;;;1.20;;
10511;SDS011;5304;48.604;2.096;2023-10-19T19:02:53;1.50;;;1.20;;
10511;SDS011;5304;48.604;2.096;2023-10-19T19:05:39;2.03;;;1.20;;
10511;SDS011;5304;48.604;2.096;2023-10-19T19:08:27;3.27;;;1.50;;
10511;SDS011;5304;48.604;2.096;2023-10-19T19:11:12;2.60;;;1.40;;
10511;SDS011;5304;48.604;2.096;2023-10-19T19:13:57;1.33;;;1.23;;
10511;SDS011;5304;48.604;2.096;2023-10-19T19:16:42;1.93;;;1.43;;
10511;SDS011;5304;48.604;2.096;2023-10-19T19:19:27;1.97;;;1.70;;
10511;SDS011;5304;48.604;2.096;2023-10-19T19:22:11;3.37;;;1.40;;
10511;SDS011;5304;48.604;2.096;2023-10-19T19:24:56;3.53;;;1.53;;
10511;SDS011;5304;48.604;2.096;2023-10-19T19:27:41;2.27;;;1.67;;
10511;SDS011;5304;48.604;2.096;2023-10-19T19:30:26;1.63;;;1.40;;
10511;SDS011;5304;48.604;2.096;2023-10-19T19:33:10;3.93;;;1.57;;
10511;SDS011;5304;48.604;2.096;2023-10-19T19:35:55;2.50;;;1.67;;
10511;SDS011;5304;48.604;2.096;2023-10-19T19:38:39;1.80;;;1.53;;
10511;SDS011;5304;48.604;2.096;2023-10-19T19:41:23;1.70;;;1.60;;
10511;SDS011;5304;48.604;2.096;2023-10-19T19:44:09;1.70;;;1.60;;
10511;SDS011;5304;48.604;2.096;2023-10-19T19:46:53;2.37;;;1.60;;
10511;SDS011;5304;48.604;2.096;2023-10-19T19:49:38;1.87;;;1.50;;
10511;SDS011;5304;48.604;2.096;2023-10-19T19:52:23;2.67;;;1.30;;
10511;SDS011;5304;48.604;2.096;2023-10-19T19:55:07;1.87;;;1.50;;
10511;SDS011;5304;48.604;2.096;2023-10-19T19:57:55;1.93;;;1.57;;
10511;SDS011;5304;48.604;2.096;2023-10-19T20:00:40;2.97;;;1.50;;
10511;SDS011;5304;48.604;2.096;2023-10-19T20:03:25;2.87;;;1.50;;
10511;SDS011;5304;48.604;2.096;2023-10-19T20:06:11;1.90;;;1.60;;
10511;SDS011;5304;48.604;2.096;2023-10-19T20:08:58;3.47;;;1.60;;
10511;SDS011;5304;48.604;2.096;2023-10-19T20:11:43;1.73;;;1.30;;
10511;SDS011;5304;48.604;2.096;2023-10-19T20:14:27;4.33;;;1.47;;
10511;SDS011;5304;48.604;2.096;2023-10-19T20:17:11;2.20;;;1.60;;
10511;SDS011;5304;48.604;2.096;2023-10-19T20:19:55;2.33;;;1.37;;
10511;SDS011;5304;48.604;2.096;2023-10-19T20:22:40;1.50;;;1.40;;
10511;SDS011;5304;48.604;2.096;2023-10-19T20:25:25;2.67;;;1.20;;
10511;SDS011;5304;48.604;2.096;2023-10-19T20:28:10;1.50;;;1.40;;
10511;SDS011;5304;48.604;2.096;2023-10-19T20:30:57;1.70;;;1.30;;
10511;SDS011;5304;48.604;2.096;2023-10-19T20:33:42;5.63;;;1.70;;
10511;SDS011;5304;48.604;2.096;2023-10-19T20:36:26;1.83;;;1.43;;
10511;SDS011;5304;48.604;2.096;2023-10-19T20:39:11;2.80;;;1.97;;
